sensor_id;sensor_type;location;lat;lon;timestamp;pressure;altitude;pressure_sealevel;temperature;humidity
66479;BME280;53294;47.912;13.526;2023-03-18T00:00:12;95802.72;;;5.44;53.18
66479;BME280;53294;47.912;13.526;2023-03-18T00:02:39;95805.16;;;5.35;53.24
66479;BME280;53294;47.912;13.526;2023-03-18T00:05:08;95811.53;;;5.39;52.95
66479;BME280;53294;47.912;13.526;2023-03-18T00:07:36;95824.09;;;5.18;54.99
66479;BME280;53294;47.912;13.526;2023-03-18T00:10:04;95817.47;;;5.16;54.03
66479;BME280;53294;47.912;13.526;2023-03-18T00:12:32;95813.44;;;5.29;53.38
66479;BME280;53294;47.912;13.526;2023-03-18T00:14:58;95828.84;;;5.37;52.88
66479;BME280;53294;47.912;13.526;2023-03-18T00:17:26;95821.09;;;5.40;52.66
66479;BME280;53294;47.912;13.526;2023-03-18T00:19:53;95821.41;;;5.29;53.22
66479;BME280;53294;47.912;13.526;2023-03-18T00:22:20;95827.31;;;4.84;55.84
66479;BME280;53294;47.912;13.526;2023-03-18T00:24:48;95830.00;;;4.59;56.65
66479;BME280;53294;47.912;13.526;2023-03-18T00:27:15;95818.81;;;4.52;56.77
66479;BME280;53294;47.912;13.526;2023-03-18T00:29:42;95815.63;;;4.70;55.48
66479;BME280;53294;47.912;13.526;2023-03-18T00:32:09;95818.28;;;4.85;54.80
66479;BME280;53294;47.912;13.526;2023-03-18T00:34:36;95810.53;;;4.99;54.54
66479;BME280;53294;47.912;13.526;2023-03-18T00:37:03;95816.41;;;4.86;55.09
66479;BME280;53294;47.912;13.526;2023-03-18T00:39:29;95818.56;;;4.79;55.45
66479;BME280;53294;47.912;13.526;2023-03-18T00:41:58;95816.94;;;4.78;55.34
66479;BME280;53294;47.912;13.526;2023-03-18T00:44:27;95817.75;;;4.73;55.95
66479;BME280;53294;47.912;13.526;2023-03-18T00:46:54;95816.16;;;4.77;55.43
66479;BME280;53294;47.912;13.526;2023-03-18T00:49:21;95813.75;;;4.81;55.93
66479;BME280;53294;47.912;13.526;2023-03-18T00:51:47;95818.25;;;5.06;54.69
66479;BME280;53294;47.912;13.526;2023-03-18T00:54:14;95818.25;;;5.11;54.35
66479;BME280;53294;47.912;13.526;2023-03-18T00:56:44;95825.19;;;5.07;54.31
66479;BME280;53294;47.912;13.526;2023-03-18T00:59:11;95830.22;;;5.14;54.04
66479;BME280;53294;47.912;13.526;2023-03-18T01:01:38;95826.25;;;5.01;55.40
66479;BME280;53294;47.912;13.526;2023-03-18T01:04:06;95827.31;;;5.00;55.48
66479;BME280;53294;47.912;13.526;2023-03-18T01:06:34;95828.38;;;5.09;54.85
66479;BME280;53294;47.912;13.526;2023-03-18T01:09:03;95827.31;;;5.10;55.07
66479;BME280;53294;47.912;13.526;2023-03-18T01:11:30;95834.22;;;5.06;55.10
66479;BME280;53294;47.912;13.526;2023-03-18T01:13:57;95825.72;;;5.04;55.26
66479;BME280;53294;47.912;13.526;2023-03-18T01:16:25;95839.56;;;4.70;57.69
66479;BME280;53294;47.912;13.526;2023-03-18T01:18:52;95829.44;;;4.72;57.06
66479;BME280;53294;47.912;13.526;2023-03-18T01:21:19;95821.72;;;5.01;55.85
66479;BME280;53294;47.912;13.526;2023-03-18T01:23:46;95825.69;;;5.09;55.28
66479;BME280;53294;47.912;13.526;2023-03-18T01:26:13;95824.38;;;5.01;55.59
66479;BME280;53294;47.912;13.526;2023-03-18T01:28:40;95829.97;;;5.10;55.19
66479;BME280;53294;47.912;13.526;2023-03-18T01:31:08;95820.94;;;4.80;56.79
66479;BME280;53294;47.912;13.526;2023-03-18T01:33:35;95819.59;;;4.93;56.99
66479;BME280;53294;47.912;13.526;2023-03-18T01:36:03;95830.00;;;4.79;56.84
66479;BME280;53294;47.912;13.526;2023-03-18T01:38:30;95831.06;;;4.53;57.48
66479;BME280;53294;47.912;13.526;2023-03-18T01:40:58;95820.66;;;4.51;58.63
66479;BME280;53294;47.912;13.526;2023-03-18T01:43:33;95815.09;;;4.53;58.48
66479;BME280;53294;47.912;13.526;2023-03-18T01:46:01;95826.25;;;4.49;57.91
66479;BME280;53294;47.912;13.526;2023-03-18T01:48:49;95819.84;;;4.45;57.90
66479;BME280;53294;47.912;13.526;2023-03-18T01:51:18;95819.09;;;4.60;57.04
66479;BME280;53294;47.912;13.526;2023-03-18T01:53:47;95820.41;;;4.68;57.44
66479;BME280;53294;47.912;13.526;2023-03-18T01:56:15;95819.06;;;4.45;57.61
66479;BME280;53294;47.912;13.526;2023-03-18T01:58:46;95824.38;;;4.55;57.68
66479;BME280;53294;47.912;13.526;2023-03-18T02:01:33;95823.06;;;4.53;57.70
66479;BME280;53294;47.912;13.526;2023-03-18T02:04:05;95814.00;;;4.48;57.62
66479;BME280;53294;47.912;13.526;2023-03-18T02:06:32;95827.06;;;4.40;57.92
66479;BME280;53294;47.912;13.526;2023-03-18T02:09:00;95827.84;;;4.35;58.02
66479;BME280;53294;47.912;13.526;2023-03-18T02:11:30;95823.31;;;4.36;58.14
66479;BME280;53294;47.912;13.526;2023-03-18T02:13:58;95823.06;;;4.58;56.84
66479;BME280;53294;47.912;13.526;2023-03-18T02:16:29;95822.81;;;4.54;56.83
66479;BME280;53294;47.912;13.526;2023-03-18T02:19:01;95829.97;;;4.38;57.97
66479;BME280;53294;47.912;13.526;2023-03-18T02:27:25;95824.13;;;4.62;57.10
66479;BME280;53294;47.912;13.526;2023-03-18T02:29:56;95816.66;;;4.69;56.09
66479;BME280;53294;47.912;13.526;2023-03-18T02:32:26;95816.16;;;4.67;56.60
66479;BME280;53294;47.912;13.526;2023-03-18T02:34:54;95827.59;;;4.57;57.32
66479;BME280;53294;47.912;13.526;2023-03-18T02:37:22;95829.97;;;4.69;56.11
66479;BME280;53294;47.912;13.526;2023-03-18T02:39:48;95823.34;;;4.51;57.73
66479;BME280;53294;47.912;13.526;2023-03-18T02:42:27;95824.41;;;4.60;57.54
66479;BME280;53294;47.912;13.526;2023-03-18T02:44:53;95819.84;;;4.45;57.61
66479;BME280;53294;47.912;13.526;2023-03-18T02:47:23;95823.56;;;4.34;57.99
66479;BME280;53294;47.912;13.526;2023-03-18T02:49:52;95834.78;;;4.41;57.61
66479;BME280;53294;47.912;13.526;2023-03-18T02:52:19;95831.03;;;4.37;57.92
66479;BME280;53294;47.912;13.526;2023-03-18T02:54:45;95833.72;;;4.47;57.02
66479;BME280;53294;47.912;13.526;2023-03-18T02:57:12;95831.31;;;4.46;57.31
66479;BME280;53294;47.912;13.526;2023-03-18T02:59:38;95830.50;;;4.35;58.62
66479;BME280;53294;47.912;13.526;2023-03-18T03:02:05;95831.56;;;4.34;57.84
66479;BME280;53294;47.912;13.526;2023-03-18T03:04:32;95833.13;;;4.30;58.06
66479;BME280;53294;47.912;13.526;2023-03-18T03:06:59;95835.28;;;4.38;57.36
66479;BME280;53294;47.912;13.526;2023-03-18T03:09:26;95841.13;;;4.45;57.31
66479;BME280;53294;47.912;13.526;2023-03-18T03:11:54;95844.81;;;4.13;59.05
66479;BME280;53294;47.912;13.526;2023-03-18T03:14:20;95853.34;;;4.26;58.54
66479;BME280;53294;47.912;13.526;2023-03-18T03:16:47;95848.16;;;3.88;60.62
66479;BME280;53294;47.912;13.526;2023-03-18T03:19:14;95850.13;;;4.13;59.42
66479;BME280;53294;47.912;13.526;2023-03-18T03:21:42;95854.94;;;4.22;58.89
66479;BME280;53294;47.912;13.526;2023-03-18T03:24:08;95852.28;;;4.22;58.73
66479;BME280;53294;47.912;13.526;2023-03-18T03:26:35;95860.53;;;4.41;57.81
66479;BME280;53294;47.912;13.526;2023-03-18T03:29:03;95859.13;;;4.02;59.55
66479;BME280;53294;47.912;13.526;2023-03-18T03:31:30;95866.34;;;4.22;58.87
66479;BME280;53294;47.912;13.526;2023-03-18T03:33:58;95866.69;;;4.41;57.80
66479;BME280;53294;47.912;13.526;2023-03-18T03:36:25;95869.84;;;4.23;58.78
66479;BME280;53294;47.912;13.526;2023-03-18T03:38:51;95875.72;;;4.35;58.33
66479;BME280;53294;47.912;13.526;2023-03-18T03:41:19;95875.69;;;4.30;59.36
66479;BME280;53294;47.912;13.526;2023-03-18T03:43:46;95876.72;;;4.19;59.85
66479;BME280;53294;47.912;13.526;2023-03-18T03:46:12;95884.34;;;3.94;61.77
66479;BME280;53294;47.912;13.526;2023-03-18T03:48:39;95885.63;;;3.82;63.20
66479;BME280;53294;47.912;13.526;2023-03-18T03:51:06;95895.81;;;4.05;61.04
66479;BME280;53294;47.912;13.526;2023-03-18T03:53:34;95894.44;;;3.98;61.85
66479;BME280;53294;47.912;13.526;2023-03-18T03:56:02;95900.13;;;4.17;60.50
66479;BME280;53294;47.912;13.526;2023-03-18T03:58:29;95904.34;;;4.12;60.65
66479;BME280;53294;47.912;13.526;2023-03-18T04:00:55;95903.81;;;4.16;60.41
66479;BME280;53294;47.912;13.526;2023-03-18T04:03:22;95898.03;;;4.34;59.03
66479;BME280;53294;47.912;13.526;2023-03-18T04:05:49;95916.13;;;4.32;59.35
66479;BME280;53294;47.912;13.526;2023-03-18T04:08:15;95909.25;;;4.46;58.54
66479;BME280;53294;47.912;13.526;2023-03-18T04:10:42;95907.88;;;4.34;59.33
66479;BME280;53294;47.912;13.526;2023-03-18T04:13:09;95915.88;;;4.34;59.18
66479;BME280;53294;47.912;13.526;2023-03-18T04:15:36;95918.69;;;4.06;61.13
66479;BME280;53294;47.912;13.526;2023-03-18T04:18:03;95912.75;;;3.89;61.81
66479;BME280;53294;47.912;13.526;2023-03-18T04:20:36;95910.38;;;3.87;62.31
66479;BME280;53294;47.912;13.526;2023-03-18T04:23:04;95913.63;;;4.10;60.98
66479;BME280;53294;47.912;13.526;2023-03-18T04:25:31;95925.09;;;4.10;60.89
66479;BME280;53294;47.912;13.526;2023-03-18T04:27:58;95920.34;;;4.28;60.00
66479;BME280;53294;47.912;13.526;2023-03-18T04:30:25;95921.41;;;4.22;60.38
66479;BME280;53294;47.912;13.526;2023-03-18T04:32:53;95923.53;;;4.20;60.89
66479;BME280;53294;47.912;13.526;2023-03-18T04:35:21;95925.94;;;4.26;60.58
66479;BME280;53294;47.912;13.526;2023-03-18T04:37:48;95918.94;;;4.00;61.07
66479;BME280;53294;47.912;13.526;2023-03-18T04:40:16;95927.22;;;4.19;59.94
66479;BME280;53294;47.912;13.526;2023-03-18T04:42:43;95922.34;;;3.95;61.89
66479;BME280;53294;47.912;13.526;2023-03-18T04:45:14;95930.34;;;4.05;61.66
66479;BME280;53294;47.912;13.526;2023-03-18T04:47:42;95933.94;;;3.73;63.41
66479;BME280;53294;47.912;13.526;2023-03-18T04:50:10;95931.38;;;3.94;62.28
66479;BME280;53294;47.912;13.526;2023-03-18T04:52:39;95933.56;;;4.07;61.73
66479;BME280;53294;47.912;13.526;2023-03-18T04:55:07;95943.09;;;3.98;62.29
66479;BME280;53294;47.912;13.526;2023-03-18T04:57:35;95936.00;;;4.19;60.91
66479;BME280;53294;47.912;13.526;2023-03-18T05:00:08;95936.25;;;4.18;60.97
66479;BME280;53294;47.912;13.526;2023-03-18T05:02:37;95936.78;;;4.14;62.81
66479;BME280;53294;47.912;13.526;2023-03-18T05:05:05;95945.31;;;4.22;60.88
66479;BME280;53294;47.912;13.526;2023-03-18T05:07:31;95940.78;;;4.17;61.52
66479;BME280;53294;47.912;13.526;2023-03-18T05:09:58;95947.97;;;4.22;60.75
66479;BME280;53294;47.912;13.526;2023-03-18T05:12:25;95941.25;;;4.04;61.79
66479;BME280;53294;47.912;13.526;2023-03-18T05:14:52;95948.25;;;4.20;60.57
66479;BME280;53294;47.912;13.526;2023-03-18T05:17:19;95952.78;;;4.20;61.43
66479;BME280;53294;47.912;13.526;2023-03-18T05:19:46;95952.22;;;4.18;61.14
66479;BME280;53294;47.912;13.526;2023-03-18T05:22:15;95952.91;;;3.98;62.66
66479;BME280;53294;47.912;13.526;2023-03-18T05:24:43;95941.06;;;4.21;61.28
66479;BME280;53294;47.912;13.526;2023-03-18T05:27:16;95951.69;;;4.21;61.11
66479;BME280;53294;47.912;13.526;2023-03-18T05:29:44;95947.50;;;4.35;60.38
66479;BME280;53294;47.912;13.526;2023-03-18T05:32:11;95953.88;;;4.29;61.14
66479;BME280;53294;47.912;13.526;2023-03-18T05:34:40;95950.38;;;4.18;61.47
66479;BME280;53294;47.912;13.526;2023-03-18T05:37:10;95948.34;;;3.83;63.97
66479;BME280;53294;47.912;13.526;2023-03-18T05:39:37;95953.59;;;3.72;64.99
66479;BME280;53294;47.912;13.526;2023-03-18T05:42:05;95953.44;;;3.94;63.60
66479;BME280;53294;47.912;13.526;2023-03-18T05:44:32;95946.81;;;4.02;62.76
66479;BME280;53294;47.912;13.526;2023-03-18T05:46:59;95946.81;;;4.02;63.40
66479;BME280;53294;47.912;13.526;2023-03-18T05:49:27;95954.91;;;4.23;62.55
66479;BME280;53294;47.912;13.526;2023-03-18T05:51:54;95954.13;;;4.32;61.61
66479;BME280;53294;47.912;13.526;2023-03-18T05:54:21;95951.47;;;4.27;62.08
66479;BME280;53294;47.912;13.526;2023-03-18T05:56:48;95945.25;;;4.06;63.44
66479;BME280;53294;47.912;13.526;2023-03-18T05:59:15;95954.94;;;4.28;62.55
66479;BME280;53294;47.912;13.526;2023-03-18T06:01:41;95952.59;;;4.42;62.39
66479;BME280;53294;47.912;13.526;2023-03-18T06:04:10;95949.66;;;4.48;62.46
66479;BME280;53294;47.912;13.526;2023-03-18T06:06:37;95950.22;;;4.51;62.55
66479;BME280;53294;47.912;13.526;2023-03-18T06:09:07;95952.38;;;4.59;62.52
66479;BME280;53294;47.912;13.526;2023-03-18T06:11:34;95948.66;;;4.65;62.82
66479;BME280;53294;47.912;13.526;2023-03-18T06:14:01;95953.97;;;4.70;62.19
66479;BME280;53294;47.912;13.526;2023-03-18T06:16:27;95954.28;;;4.79;62.63
66479;BME280;53294;47.912;13.526;2023-03-18T06:18:54;95955.59;;;4.81;63.81
66479;BME280;53294;47.912;13.526;2023-03-18T06:21:21;95953.47;;;4.94;62.18
66479;BME280;53294;47.912;13.526;2023-03-18T06:23:47;95958.56;;;5.00;62.38
66479;BME280;53294;47.912;13.526;2023-03-18T06:26:15;95957.25;;;5.13;62.98
66479;BME280;53294;47.912;13.526;2023-03-18T06:28:41;95963.91;;;5.21;63.54
66479;BME280;53294;47.912;13.526;2023-03-18T06:31:08;95962.03;;;5.37;63.14
66479;BME280;53294;47.912;13.526;2023-03-18T06:33:36;95959.34;;;5.57;63.29
66479;BME280;53294;47.912;13.526;2023-03-18T06:36:04;95956.13;;;5.71;61.95
66479;BME280;53294;47.912;13.526;2023-03-18T06:38:31;95951.31;;;5.83;61.35
66479;BME280;53294;47.912;13.526;2023-03-18T06:40:58;95954.50;;;5.96;61.76
66479;BME280;53294;47.912;13.526;2023-03-18T06:43:25;95947.09;;;5.72;62.79
66479;BME280;53294;47.912;13.526;2023-03-18T06:45:54;95956.09;;;5.91;65.37
66479;BME280;53294;47.912;13.526;2023-03-18T06:48:21;95946.47;;;6.11;64.62
66479;BME280;53294;47.912;13.526;2023-03-18T06:50:48;95948.00;;;6.27;64.36
66479;BME280;53294;47.912;13.526;2023-03-18T06:53:15;95954.59;;;6.45;64.22
66479;BME280;53294;47.912;13.526;2023-03-18T06:55:43;95953.00;;;6.50;66.52
66479;BME280;53294;47.912;13.526;2023-03-18T06:58:10;95953.00;;;6.50;66.61
66479;BME280;53294;47.912;13.526;2023-03-18T07:00:36;95947.47;;;6.86;65.18
66479;BME280;53294;47.912;13.526;2023-03-18T07:03:03;95951.50;;;7.17;64.90
66479;BME280;53294;47.912;13.526;2023-03-18T07:05:30;95943.56;;;7.42;63.74
66479;BME280;53294;47.912;13.526;2023-03-18T07:07:58;95933.25;;;7.59;62.84
66479;BME280;53294;47.912;13.526;2023-03-18T07:10:27;95935.13;;;7.88;63.01
66479;BME280;53294;47.912;13.526;2023-03-18T07:12:55;95934.53;;;8.15;61.71
66479;BME280;53294;47.912;13.526;2023-03-18T07:15:22;95937.91;;;8.26;64.47
66479;BME280;53294;47.912;13.526;2023-03-18T07:17:49;95938.19;;;8.49;62.18
66479;BME280;53294;47.912;13.526;2023-03-18T07:20:18;95946.38;;;8.33;63.85
66479;BME280;53294;47.912;13.526;2023-03-18T07:22:45;95937.13;;;8.69;63.27
66479;BME280;53294;47.912;13.526;2023-03-18T07:25:12;95943.34;;;8.83;62.74
66479;BME280;53294;47.912;13.526;2023-03-18T07:27:40;95933.13;;;9.04;62.47
66479;BME280;53294;47.912;13.526;2023-03-18T07:30:08;95935.09;;;9.50;61.27
66479;BME280;53294;47.912;13.526;2023-03-18T07:32:36;95940.03;;;9.76;59.39
66479;BME280;53294;47.912;13.526;2023-03-18T07:35:04;95935.78;;;10.03;59.17
66479;BME280;53294;47.912;13.526;2023-03-18T07:37:32;95937.69;;;10.16;57.52
66479;BME280;53294;47.912;13.526;2023-03-18T07:39:59;95941.38;;;10.34;57.23
66479;BME280;53294;47.912;13.526;2023-03-18T07:42:25;95937.00;;;10.52;56.47
66479;BME280;53294;47.912;13.526;2023-03-18T07:44:52;95943.84;;;10.45;56.28
66479;BME280;53294;47.912;13.526;2023-03-18T07:47:19;95941.16;;;10.58;55.98
66479;BME280;53294;47.912;13.526;2023-03-18T07:49:46;95945.94;;;10.62;55.77
66479;BME280;53294;47.912;13.526;2023-03-18T07:52:13;95938.97;;;10.60;55.73
66479;BME280;53294;47.912;13.526;2023-03-18T07:54:40;95943.69;;;10.91;55.84
66479;BME280;53294;47.912;13.526;2023-03-18T07:57:07;95948.84;;;11.02;55.51
66479;BME280;53294;47.912;13.526;2023-03-18T07:59:34;95947.88;;;11.20;54.24
66479;BME280;53294;47.912;13.526;2023-03-18T08:02:00;95949.47;;;11.44;53.17
66479;BME280;53294;47.912;13.526;2023-03-18T08:04:27;95944.91;;;12.07;52.41
66479;BME280;53294;47.912;13.526;2023-03-18T08:06:55;95942.59;;;12.63;51.25
66479;BME280;53294;47.912;13.526;2023-03-18T08:09:23;95941.72;;;11.74;52.52
66479;BME280;53294;47.912;13.526;2023-03-18T08:11:50;95948.13;;;12.09;52.44
66479;BME280;53294;47.912;13.526;2023-03-18T08:14:17;95946.25;;;11.87;50.97
66479;BME280;53294;47.912;13.526;2023-03-18T08:16:43;95953.41;;;11.46;52.39
66479;BME280;53294;47.912;13.526;2023-03-18T08:19:10;95949.66;;;11.79;51.37
66479;BME280;53294;47.912;13.526;2023-03-18T08:21:37;95955.06;;;11.34;51.19
66479;BME280;53294;47.912;13.526;2023-03-18T08:24:05;95948.84;;;11.47;51.78
66479;BME280;53294;47.912;13.526;2023-03-18T08:26:32;95949.31;;;11.72;51.69
66479;BME280;53294;47.912;13.526;2023-03-18T08:28:59;95942.63;;;12.32;51.35
66479;BME280;53294;47.912;13.526;2023-03-18T08:31:26;95948.63;;;12.20;50.94
66479;BME280;53294;47.912;13.526;2023-03-18T08:33:52;95945.63;;;12.21;51.91
66479;BME280;53294;47.912;13.526;2023-03-18T08:36:21;95944.13;;;12.47;50.88
66479;BME280;53294;47.912;13.526;2023-03-18T08:38:48;95944.03;;;12.87;49.61
66479;BME280;53294;47.912;13.526;2023-03-18T08:41:15;95944.19;;;12.90;50.06
66479;BME280;53294;47.912;13.526;2023-03-18T08:43:42;95948.81;;;13.07;49.27
66479;BME280;53294;47.912;13.526;2023-03-18T08:46:10;95951.34;;;13.13;48.30
66479;BME280;53294;47.912;13.526;2023-03-18T08:48:37;95952.59;;;13.06;48.79
66479;BME280;53294;47.912;13.526;2023-03-18T08:51:04;95952.66;;;13.41;48.81
66479;BME280;53294;47.912;13.526;2023-03-18T08:53:34;95952.63;;;13.68;47.62
66479;BME280;53294;47.912;13.526;2023-03-18T08:56:01;95951.84;;;13.50;47.17
66479;BME280;53294;47.912;13.526;2023-03-18T08:58:28;95940.16;;;13.93;48.52
66479;BME280;53294;47.912;13.526;2023-03-18T09:00:55;95946.59;;;13.62;47.88
66479;BME280;53294;47.912;13.526;2023-03-18T09:03:22;95942.16;;;13.66;47.46
66479;BME280;53294;47.912;13.526;2023-03-18T09:05:51;95940.38;;;13.79;47.79
66479;BME280;53294;47.912;13.526;2023-03-18T09:08:21;95935.94;;;13.74;47.72
66479;BME280;53294;47.912;13.526;2023-03-18T09:10:52;95934.78;;;13.93;47.18
66479;BME280;53294;47.912;13.526;2023-03-18T09:13:20;95936.22;;;14.29;47.00
66479;BME280;53294;47.912;13.526;2023-03-18T09:15:47;95936.13;;;14.46;43.57
66479;BME280;53294;47.912;13.526;2023-03-18T09:18:15;95933.09;;;14.18;46.35
66479;BME280;53294;47.912;13.526;2023-03-18T09:20:41;95942.66;;;14.15;45.63
66479;BME280;53294;47.912;13.526;2023-03-18T09:23:09;95937.91;;;14.42;45.26
66479;BME280;53294;47.912;13.526;2023-03-18T09:25:38;95941.94;;;14.57;45.87
66479;BME280;53294;47.912;13.526;2023-03-18T09:28:05;95936.78;;;15.03;45.52
66479;BME280;53294;47.912;13.526;2023-03-18T09:30:32;95934.09;;;15.57;45.11
66479;BME280;53294;47.912;13.526;2023-03-18T09:32:59;95922.56;;;15.82;43.58
66479;BME280;53294;47.912;13.526;2023-03-18T09:35:27;95921.00;;;15.93;45.25
66479;BME280;53294;47.912;13.526;2023-03-18T09:37:57;95923.97;;;16.25;42.43
66479;BME280;53294;47.912;13.526;2023-03-18T09:40:27;95912.34;;;16.49;43.28
66479;BME280;53294;47.912;13.526;2023-03-18T09:43:04;95908.03;;;16.60;42.29
66479;BME280;53294;47.912;13.526;2023-03-18T09:51:00;95900.53;;;17.63;41.56
66479;BME280;53294;47.912;13.526;2023-03-18T09:53:51;95897.66;;;17.88;40.12
66479;BME280;53294;47.912;13.526;2023-03-18T09:56:25;95899.94;;;17.86;40.05
66479;BME280;53294;47.912;13.526;2023-03-18T09:59:03;95894.66;;;17.61;39.33
66479;BME280;53294;47.912;13.526;2023-03-18T10:01:33;95898.50;;;17.88;40.39
66479;BME280;53294;47.912;13.526;2023-03-18T10:04:49;95899.19;;;17.85;38.85
66479;BME280;53294;47.912;13.526;2023-03-18T10:07:16;95902.03;;;17.76;38.14
66479;BME280;53294;47.912;13.526;2023-03-18T10:09:54;95894.47;;;17.26;38.40
66479;BME280;53294;47.912;13.526;2023-03-18T10:15:21;95886.13;;;17.47;38.66
66479;BME280;53294;47.912;13.526;2023-03-18T10:18:11;95889.63;;;17.47;38.90
66479;BME280;53294;47.912;13.526;2023-03-18T10:27:32;95890.88;;;17.94;38.95
66479;BME280;53294;47.912;13.526;2023-03-18T10:29:41;95884.84;;;18.68;36.59
66479;BME280;53294;47.912;13.526;2023-03-18T10:37:39;95887.59;;;18.52;39.22
66479;BME280;53294;47.912;13.526;2023-03-18T10:40:12;95884.22;;;18.75;38.47
66479;BME280;53294;47.912;13.526;2023-03-18T10:42:39;95889.22;;;19.28;38.18
66479;BME280;53294;47.912;13.526;2023-03-18T10:47:49;95871.28;;;19.66;37.81
66479;BME280;53294;47.912;13.526;2023-03-18T10:50:28;95879.38;;;19.82;37.65
66479;BME280;53294;47.912;13.526;2023-03-18T10:53:09;95874.88;;;20.16;36.61
66479;BME280;53294;47.912;13.526;2023-03-18T10:55:52;95874.84;;;20.39;36.93
66479;BME280;53294;47.912;13.526;2023-03-18T10:58:22;95861.41;;;20.54;38.40
66479;BME280;53294;47.912;13.526;2023-03-18T11:00:49;95866.16;;;20.57;38.85
66479;BME280;53294;47.912;13.526;2023-03-18T11:03:29;95853.84;;;20.67;37.52
66479;BME280;53294;47.912;13.526;2023-03-18T11:06:00;95855.88;;;20.73;35.69
66479;BME280;53294;47.912;13.526;2023-03-18T11:08:33;95855.25;;;20.84;35.94
66479;BME280;53294;47.912;13.526;2023-03-18T11:11:33;95849.22;;;21.01;36.13
66479;BME280;53294;47.912;13.526;2023-03-18T11:14:02;95844.03;;;20.92;36.87
66479;BME280;53294;47.912;13.526;2023-03-18T11:16:36;95843.31;;;20.65;35.42
66479;BME280;53294;47.912;13.526;2023-03-18T11:19:31;95841.97;;;20.82;37.45
66479;BME280;53294;47.912;13.526;2023-03-18T11:24:43;95846.94;;;20.73;37.09
66479;BME280;53294;47.912;13.526;2023-03-18T11:29:48;95831.00;;;20.78;34.27
66479;BME280;53294;47.912;13.526;2023-03-18T11:32:32;95831.75;;;20.75;36.59
66479;BME280;53294;47.912;13.526;2023-03-18T11:35:01;95829.38;;;20.74;35.97
66479;BME280;53294;47.912;13.526;2023-03-18T11:37:30;95828.59;;;20.73;36.32
66479;BME280;53294;47.912;13.526;2023-03-18T11:42:41;95827.25;;;20.90;35.88
66479;BME280;53294;47.912;13.526;2023-03-18T11:47:48;95821.97;;;21.05;37.73
66479;BME280;53294;47.912;13.526;2023-03-18T11:50:19;95822.78;;;21.43;35.58
66479;BME280;53294;47.912;13.526;2023-03-18T11:53:12;95813.63;;;21.58;35.23
66479;BME280;53294;47.912;13.526;2023-03-18T11:58:22;95809.09;;;21.39;33.89
66479;BME280;53294;47.912;13.526;2023-03-18T12:06:15;95815.69;;;21.01;36.51
66479;BME280;53294;47.912;13.526;2023-03-18T12:11:59;95810.41;;;20.54;36.35
66479;BME280;53294;47.912;13.526;2023-03-18T12:14:42;95805.81;;;20.35;38.21
66479;BME280;53294;47.912;13.526;2023-03-18T12:23:00;95808.63;;;20.39;37.16
66479;BME280;53294;47.912;13.526;2023-03-18T12:25:57;95807.38;;;20.33;36.86
66479;BME280;53294;47.912;13.526;2023-03-18T12:33:58;95805.81;;;20.08;37.20
66479;BME280;53294;47.912;13.526;2023-03-18T12:36:42;95809.19;;;19.98;38.65
66479;BME280;53294;47.912;13.526;2023-03-18T12:44:58;95807.28;;;20.02;38.09
66479;BME280;53294;47.912;13.526;2023-03-18T12:47:33;95801.19;;;20.09;37.83
66479;BME280;53294;47.912;13.526;2023-03-18T12:52:38;95793.56;;;20.22;38.17
66479;BME280;53294;47.912;13.526;2023-03-18T12:58:20;95793.22;;;20.54;37.73
66479;BME280;53294;47.912;13.526;2023-03-18T13:01:01;95794.09;;;20.61;36.11
66479;BME280;53294;47.912;13.526;2023-03-18T13:03:37;95791.09;;;20.67;35.52
66479;BME280;53294;47.912;13.526;2023-03-18T13:06:16;95793.59;;;20.79;36.40
66479;BME280;53294;47.912;13.526;2023-03-18T13:12:06;95786.50;;;21.08;35.25
66479;BME280;53294;47.912;13.526;2023-03-18T13:17:40;95780.97;;;21.35;35.44
66479;BME280;53294;47.912;13.526;2023-03-18T13:20:22;95774.50;;;21.50;35.15
66479;BME280;53294;47.912;13.526;2023-03-18T13:26:08;95775.75;;;21.60;35.56
66479;BME280;53294;47.912;13.526;2023-03-18T13:28:46;95768.72;;;21.59;34.66
66479;BME280;53294;47.912;13.526;2023-03-18T13:44:04;95766.22;;;21.47;36.30
66479;BME280;53294;47.912;13.526;2023-03-18T13:46:34;95756.69;;;21.26;34.66
66479;BME280;53294;47.912;13.526;2023-03-18T13:49:01;95753.81;;;21.12;35.99
66479;BME280;53294;47.912;13.526;2023-03-18T13:53:58;95748.84;;;21.25;36.07
66479;BME280;53294;47.912;13.526;2023-03-18T13:58:53;95740.78;;;20.98;35.10
66479;BME280;53294;47.912;13.526;2023-03-18T14:12:44;95723.53;;;20.26;36.71
66479;BME280;53294;47.912;13.526;2023-03-18T14:17:54;95725.66;;;20.13;37.71
66479;BME280;53294;47.912;13.526;2023-03-18T14:20:35;95732.94;;;20.32;37.19
66479;BME280;53294;47.912;13.526;2023-03-18T14:25:48;95719.03;;;20.41;36.78
66479;BME280;53294;47.912;13.526;2023-03-18T14:28:24;95720.69;;;20.49;37.06
66479;BME280;53294;47.912;13.526;2023-03-18T14:33:57;95721.63;;;20.60;37.12
66479;BME280;53294;47.912;13.526;2023-03-18T14:39:15;95723.66;;;20.37;37.34
66479;BME280;53294;47.912;13.526;2023-03-18T14:41:46;95728.91;;;20.22;37.59
66479;BME280;53294;47.912;13.526;2023-03-18T14:44:20;95732.09;;;20.24;37.88
66479;BME280;53294;47.912;13.526;2023-03-18T14:46:49;95720.22;;;20.13;37.71
66479;BME280;53294;47.912;13.526;2023-03-18T14:54:58;95733.31;;;20.04;37.63
66479;BME280;53294;47.912;13.526;2023-03-18T14:57:26;95724.22;;;19.93;38.35
66479;BME280;53294;47.912;13.526;2023-03-18T14:59:53;95731.53;;;19.88;38.31
66479;BME280;53294;47.912;13.526;2023-03-18T15:02:32;95728.94;;;19.96;38.35
66479;BME280;53294;47.912;13.526;2023-03-18T15:05:00;95721.59;;;20.26;37.79
66479;BME280;53294;47.912;13.526;2023-03-18T15:07:35;95720.97;;;20.10;37.51
66479;BME280;53294;47.912;13.526;2023-03-18T15:10:07;95722.53;;;20.11;36.73
66479;BME280;53294;47.912;13.526;2023-03-18T15:12:35;95717.63;;;19.94;38.20
66479;BME280;53294;47.912;13.526;2023-03-18T15:15:06;95712.91;;;19.90;37.86